Flight Track Log - Related Links

Times and Time Zones

All times are in EDT time to prevent confusion due to time zone crossing. See the SWA1834 flight status page for this flight to view local times or setup timezone preferences in your user account.

Time Position Orientation Groundspeed Altitude Reporting Facility
EDT Latitude Longitude Course Direction KTS MPH feet Rate Location/Type
Sat 07:35:26 PM 36.0761 -115.1683 270° West 167 192 3,400  Level Los Angeles Center
Sat 07:36:21 PM 36.0758 -115.2267 270° West 204 235 4,600 1,691 Climbing Los Angeles Center
Sat 07:37:16 PM 36.1061 -115.2881 301° West 250 288 6,500 2,586 Climbing Los Angeles Center
Sat 07:38:17 PM 36.1758 -115.2497 24° Northeast 307 353 9,600 2,341 Climbing Los Angeles Center
Sat 07:39:19 PM 36.1975 -115.1436 76° East 324 373 11,300 2,032 Climbing Los Angeles Center
Sat 07:40:21 PM 36.1972 -115.0139 90° East 371 427 13,800 2,516 Climbing Los Angeles Center
Sat 07:41:23 PM 36.1997 -114.8517 89° East 389 448 16,500 2,516 Climbing Los Angeles Center
Sat 07:42:25 PM 36.2000 -114.7100 90° East 405 466 19,000 2,177 Climbing Los Angeles Center
Sat 07:43:27 PM 36.1975 -114.5625 91° East 422 486 21,000 1,854 Climbing Los Angeles Center
Sat 07:44:28 PM 36.1947 -114.4094 91° East 437 503 22,800 1,707 Climbing Los Angeles Center
Sat 07:45:30 PM 36.1919 -114.2514 91° East 452 520 24,500 1,548 Climbing Los Angeles Center
Sat 07:46:32 PM 36.2103 -114.0939 82° East 459 528 26,000 1,306 Climbing Los Angeles Center
Sat 07:47:34 PM 36.2300 -113.9336 81° East 467 537 27,200 1,306 Climbing Los Angeles Center
Sat 07:48:36 PM 36.2533 -113.7356 82° East 482 555 28,700 1,317 Climbing Los Angeles Center
Sat 07:49:37 PM 36.2728 -113.5675 82° East 491 565 29,900 1,122 Climbing Los Angeles Center
Sat 07:50:39 PM 36.2922 -113.3958 82° East 500 575 31,000 919 Climbing Los Angeles Center
Sat 07:51:41 PM 36.3139 -113.2286 81° East 504 580 31,800 919 Climbing Los Angeles Center
Sat 07:52:43 PM 36.3689 -113.0722 66° East 497 572 32,900 1,016 Climbing Los Angeles Center
Sat 07:53:45 PM 36.4258 -112.9194 65° Northeast 491 565 33,900 927 Climbing Los Angeles Center
Sat 07:54:46 PM 36.4942 -112.7336 65° Northeast 494 568 34,800 537 Climbing Los Angeles Center
Sat 07:55:48 PM 36.5519 -112.5772 65° Northeast 500 575 35,000 97 Climbing Los Angeles Center
Sat 07:56:50 PM 36.6086 -112.4217 66° East 498 573 35,000  Level Los Angeles Center
Sat 07:57:52 PM 36.6656 -112.2647 66° East 500 575 35,000  Level Los Angeles Center
Sat 07:58:54 PM 36.7219 -112.1072 66° East 501 577 35,000  Level Los Angeles Center
Sat 07:59:27 PM 36.7567 -112.0122 65° Northeast 502 578 35,000  Level Denver Center
Sat 08:00:28 PM 36.8136 -111.8525 66° East 504 580 35,000  Level Denver Center
Sat 08:01:30 PM 36.8714 -111.6931 66° East 506 582 35,000  Level Denver Center
Sat 08:02:31 PM 36.9281 -111.5333 66° East 507 583 35,000  Level Denver Center
Sat 08:03:33 PM 36.9967 -111.3386 66° East 510 587 35,000  Level Denver Center
Sat 08:04:34 PM 37.0525 -111.1778 66° East 510 587 35,000  Level Denver Center
Sat 08:05:35 PM 37.1089 -111.0150 66° East 513 590 35,000  Level Denver Center
Sat 08:06:36 PM 37.1661 -110.8506 66° East 515 593 35,000  Level Denver Center
Sat 08:07:38 PM 37.2225 -110.6875 66° East 513 590 35,000  Level Denver Center
Sat 08:08:39 PM 37.2781 -110.5222 67° East 514 592 35,000  Level Denver Center
Sat 08:09:40 PM 37.3342 -110.3586 67° East 512 589 35,000  Level Denver Center
Sat 08:10:42 PM 37.3919 -110.1886 67° East 514 592 35,000  Level Denver Center
Sat 08:11:43 PM 37.4558 -109.9994 67° East 523 602 35,000  Level Denver Center
Sat 08:12:44 PM 37.5086 -109.8419 67° East 513 590 35,000  Level Denver Center
Sat 08:13:46 PM 37.5714 -109.6561 67° East 515 593 35,000  Level Denver Center
Sat 08:14:47 PM 37.6250 -109.4933 67° East 522 601 35,000  Level Denver Center
Sat 08:15:48 PM 37.6772 -109.3333 68° East 516 594 35,000  Level Denver Center
Sat 08:16:49 PM 37.7389 -109.1478 67° East 514 592 35,000  Level Denver Center
Sat 08:17:51 PM 37.7911 -108.9853 68° East 519 597 35,000  Level Denver Center
Sat 08:18:52 PM 37.8797 -108.8700 46° Northeast 478 550 35,000  Level Denver Center
Sat 08:19:53 PM 38.0011 -108.7681 33° Northeast 468 539 35,000  Level Denver Center
Sat 08:20:54 PM 38.1122 -108.6706 35° Northeast 475 547 35,000  Level Denver Center
Sat 08:21:55 PM 38.2158 -108.5792 35° Northeast 474 545 35,000  Level Denver Center
Sat 08:22:57 PM 38.3386 -108.4722 34° Northeast 477 549 35,000  Level Denver Center
Sat 08:23:58 PM 38.4403 -108.3844 34° Northeast 463 533 35,000  Level Denver Center
Sat 08:25:11 PM 38.5411 -108.2983 34° Northeast 457 526 35,000  Level Denver Center
Sat 08:26:13 PM 38.6775 -108.1778 35° Northeast 466 536 35,000  Level Denver Center
Sat 08:27:14 PM 38.7792 -108.0875 35° Northeast 466 536 35,000  Level Denver Center
Sat 08:28:15 PM 38.8986 -107.9819 35° Northeast 467 537 35,000  Level Denver Center
Sat 08:29:16 PM 39.0019 -107.8908 34° Northeast 470 541 35,000  Level Denver Center
Sat 08:30:17 PM 39.1214 -107.7853 34° Northeast 468 539 35,000  Level Denver Center
Sat 08:31:18 PM 39.2231 -107.6931 35° Northeast 468 539 35,000  Level Denver Center
Sat 08:32:20 PM 39.3250 -107.6008 35° Northeast 468 539 35,000  Level Denver Center
Sat 08:33:21 PM 39.4444 -107.4942 35° Northeast 467 537 35,000  Level Denver Center
Sat 08:34:22 PM 39.5467 -107.4006 35° Northeast 469 540 35,000  Level Denver Center
Sat 08:35:23 PM 39.6689 -107.2897 35° Northeast 477 549 35,000  Level Denver Center
Sat 08:36:24 PM 39.7569 -107.2086 35° Northeast 484 557 35,000 197 Level Denver Center
Sat 08:37:25 PM 39.8753 -107.1025 35° Northeast 471 542 35,400 934 Climbing Denver Center
Sat 08:38:26 PM 39.9956 -106.9903 36° Northeast 470 541 36,900 780 Climbing Denver Center
Sat 08:39:28 PM 40.0942 -106.8997 35° Northeast 457 526 37,000 49 Climbing Denver Center
Sat 08:40:29 PM 40.1914 -106.8094 35° Northeast 451 519 37,000  Level Denver Center
Sat 08:41:30 PM 40.2925 -106.7164 35° Northeast 450 518 37,000  Level Denver Center
Sat 08:42:31 PM 40.3958 -106.6222 35° Northeast 451 519 37,000  Level Denver Center
Sat 08:43:32 PM 40.5181 -106.5053 36° Northeast 452 520 37,000  Level Denver Center
Sat 08:44:33 PM 40.6150 -106.4114 36° Northeast 452 520 37,000  Level Denver Center
Sat 08:45:34 PM 40.7167 -106.3169 35° Northeast 461 531 37,000  Level Denver Center
Sat 08:46:35 PM 40.8125 -106.2247 36° Northeast 460 529 37,000  Level Denver Center
Sat 08:47:37 PM 40.9361 -106.1069 36° Northeast 466 536 37,000  Level Denver Center
Sat 08:48:38 PM 41.0469 -106.0003 36° Northeast 469 540 37,000  Level Denver Center
Sat 08:49:39 PM 41.1492 -105.9044 35° Northeast 470 541 37,000  Level Denver Center
Sat 08:50:40 PM 41.2481 -105.8058 37° Northeast 466 536 37,000  Level Denver Center
Sat 08:51:41 PM 41.3492 -105.6675 46° Northeast 487 560 37,000  Level Denver Center
Sat 08:52:42 PM 41.3947 -105.5058 69° East 489 563 37,000  Level Denver Center
Sat 08:53:44 PM 41.4422 -105.3128 72° East 490 564 37,000  Level Denver Center
Sat 08:54:45 PM 41.4836 -105.1514 71° East 484 557 37,000  Level Denver Center
Sat 08:55:46 PM 41.5269 -104.9858 71° East 492 566 37,000  Level Denver Center
Sat 08:56:47 PM 41.5747 -104.7928 72° East 493 567 37,000  Level Denver Center
Sat 08:57:48 PM 41.6153 -104.6289 72° East 489 563 37,000  Level Denver Center
Sat 08:58:49 PM 41.6631 -104.4319 72° East 497 572 37,000  Level Denver Center
Sat 09:00:02 PM 41.6844 -104.2556 81° East 505 581 37,000  Level Denver Center
Sat 09:01:04 PM 41.7136 -104.0203 80° East 505 581 37,000  Level Denver Center
Sat 09:02:05 PM 41.7358 -103.8411 81° East 509 586 37,000  Level Denver Center
Sat 09:03:06 PM 41.7569 -103.6619 81° East 510 587 37,000  Level Denver Center
Sat 09:04:07 PM 41.7819 -103.4517 81° East 512 589 37,000  Level Denver Center
Sat 09:05:09 PM 41.8033 -103.2725 81° East 512 589 37,000  Level Denver Center
Sat 09:06:10 PM 41.8275 -103.0614 81° East 515 593 37,000  Level Denver Center
Sat 09:07:11 PM 41.8478 -102.8833 81° East 508 585 37,000  Level Denver Center
Sat 09:08:12 PM 41.8678 -102.7044 81° East 509 586 37,000  Level Denver Center
Sat 09:09:13 PM 41.8906 -102.4933 82° East 513 590 37,000  Level Denver Center
Sat 09:10:15 PM 41.9094 -102.3136 82° East 511 588 37,000  Level Denver Center
Sat 09:11:16 PM 41.9297 -102.1269 82° East 511 588 37,000  Level Denver Center
Sat 09:12:17 PM 41.9517 -101.9172 82° East 508 585 37,000  Level Denver Center
Sat 09:13:18 PM 41.9711 -101.7367 82° East 509 586 37,000  Level Denver Center
Sat 09:14:20 PM 41.9889 -101.5567 82° East 508 585 37,000  Level Denver Center
Sat 09:15:21 PM 42.0103 -101.3456 82° East 509 586 37,000  Level Denver Center
Sat 09:17:24 PM 42.0450 -100.9861 82° East 495 570 37,000  Level Minneapolis Center
Sat 09:18:26 PM 42.0622 -100.8028 83° East 494 568 37,000  Level Minneapolis Center
Sat 09:19:27 PM 42.0800 -100.6214 82° East 490 564 37,000  Level Minneapolis Center
Sat 09:20:28 PM 42.0969 -100.4392 83° East 490 564 37,000  Level Minneapolis Center
Sat 09:21:29 PM 42.1128 -100.2556 83° East 491 565 37,000  Level Minneapolis Center
Sat 09:22:30 PM 42.1314 -100.0369 83° East 490 564 37,000  Level Minneapolis Center
Sat 09:23:32 PM 42.1475 -99.8569 83° East 493 567 37,000  Level Denver Center
Sat 09:24:33 PM 42.1633 -99.6692 83° East 491 565 37,000  Level Denver Center
Sat 09:25:35 PM 42.1783 -99.4856 84° East 490 564 37,000  Level Denver Center
Sat 09:26:34 PM 42.1942 -99.2983 83° East 498 573 37,000  Level Minneapolis Center
Sat 09:27:34 PM 42.2094 -99.1133 84° East 496 571 37,000  Level Minneapolis Center
Sat 09:28:35 PM 42.2228 -98.9250 84° East 500 575 37,000  Level Minneapolis Center
Sat 09:29:36 PM 42.2378 -98.7386 84° East 499 574 37,000  Level Minneapolis Center
Sat 09:30:37 PM 42.2517 -98.5533 84° East 499 574 37,000  Level Minneapolis Center
Sat 09:31:38 PM 42.2650 -98.3669 84° East 498 573 37,000  Level Minneapolis Center
Sat 09:32:39 PM 42.2786 -98.1828 84° East 493 567 37,000  Level Minneapolis Center
Sat 09:33:40 PM 42.2917 -97.9964 85° East 497 572 37,000  Level Minneapolis Center
Sat 09:34:41 PM 42.3036 -97.8092 85° East 498 573 37,000  Level Minneapolis Center
Sat 09:35:42 PM 42.3167 -97.6258 84° East 495 570 37,000  Level Minneapolis Center
Sat 09:36:43 PM 42.3278 -97.4386 85° East 496 571 37,000  Level Minneapolis Center
Sat 09:37:43 PM 42.3397 -97.2542 85° East 495 570 37,000  Level Minneapolis Center
Sat 09:38:44 PM 42.3519 -97.0686 85° East 495 570 37,000  Level Minneapolis Center
Sat 09:39:45 PM 42.3633 -96.8831 85° East 495 570 37,000  Level Minneapolis Center
Sat 09:40:46 PM 42.3731 -96.6972 86° East 495 570 37,000  Level Minneapolis Center
Sat 09:41:47 PM 42.3839 -96.5139 85° East 493 567 37,000  Level Minneapolis Center
Sat 09:42:48 PM 42.3947 -96.3300 85° East 491 565 37,000  Level Minneapolis Center
Sat 09:43:48 PM 42.4042 -96.1450 86° East 490 564 37,000  Level Minneapolis Center
Sat 09:44:49 PM 42.4136 -95.9608 86° East 492 566 37,000  Level Minneapolis Center
Sat 09:45:50 PM 42.4256 -95.7358 86° East 493 567 37,000  Level Minneapolis Center
Sat 09:46:51 PM 42.4333 -95.5475 87° East 498 573 37,000  Level Minneapolis Center
Sat 09:47:52 PM 42.4422 -95.3606 86° East 497 572 37,000  Level Minneapolis Center
Sat 09:48:52 PM 42.4511 -95.1739 86° East 497 572 37,000  Level Minneapolis Center
Sat 09:49:53 PM 42.4592 -94.9861 87° East 498 573 37,000  Level Minneapolis Center
Sat 09:50:54 PM 42.4667 -94.7992 87° East 497 572 37,000  Level Minneapolis Center
Sat 09:51:55 PM 42.4742 -94.6092 87° East 502 578 37,000  Level Minneapolis Center
Sat 09:52:55 PM 42.4786 -94.4417 88° East 506 582 37,000  Level Minneapolis Center
Sat 09:53:56 PM 42.4864 -94.2536 87° East 506 582 37,000  Level Minneapolis Center
Sat 09:54:57 PM 42.4950 -94.0278 87° East 503 579 37,000  Level Minneapolis Center
Sat 09:55:58 PM 42.5008 -93.8406 88° East 502 578 37,000  Level Minneapolis Center
Sat 09:56:58 PM 42.5064 -93.6547 88° East 499 574 37,000  Level Minneapolis Center
Sat 09:57:59 PM 42.5131 -93.4675 87° East 501 577 37,000  Level Minneapolis Center
Sat 09:59:00 PM 42.5181 -93.2792 88° East 503 579 37,000  Level Minneapolis Center
Sat 10:00:01 PM 42.5236 -93.0919 88° East 502 578 37,000  Level Minneapolis Center
Sat 10:01:01 PM 42.5278 -92.9047 88° East 501 577 37,000  Level Minneapolis Center
Sat 10:02:02 PM 42.5328 -92.7186 88° East 498 573 37,000  Level Minneapolis Center
Sat 10:03:03 PM 42.5364 -92.5342 88° East 496 571 37,000  Level Minneapolis Center
Sat 10:04:04 PM 42.5403 -92.3500 88° East 494 568 37,000  Level Minneapolis Center
Sat 10:05:05 PM 42.5444 -92.1294 88° East 494 568 37,000  Level Minneapolis Center
Sat 10:05:32 PM 42.5458 -92.0547 89° East 495 570 37,000  Level Chicago Center
Sat 10:06:33 PM 42.5492 -91.8719 89° East 491 565 37,000  Level Chicago Center
Sat 10:07:33 PM 42.5514 -91.6919 89° East 490 564 37,000  Level Chicago Center
Sat 10:08:34 PM 42.5542 -91.5125 89° East 491 565 37,000  Level Chicago Center
Sat 10:09:34 PM 42.5564 -91.3336 89° East 487 560 37,000  Level Chicago Center
Sat 10:10:35 PM 42.5592 -91.1164 89° East 489 563 37,000  Level Chicago Center
Sat 10:11:36 PM 42.5719 -90.9353 84° East 489 563 37,000  Level Chicago Center
Sat 10:12:36 PM 42.5828 -90.7536 85° East 488 562 37,000  Level Chicago Center
Sat 10:13:37 PM 42.5942 -90.5711 85° East 491 565 37,000  Level Chicago Center
Sat 10:14:38 PM 42.6039 -90.3869 86° East 493 567 37,000 -397 Level Chicago Center
Sat 10:15:38 PM 42.6158 -90.2011 85° East 497 572 36,200 -1,736 Descending Chicago Center
Sat 10:16:39 PM 42.6253 -90.0156 86° East 498 573 33,500 -2,975 Descending Chicago Center
Sat 10:17:39 PM 42.6358 -89.8067 86° East 505 581 30,200 -2,876 Descending Chicago Center
Sat 10:18:40 PM 42.6453 -89.6194 86° East 500 575 27,700 -2,361 Descending Chicago Center
Sat 10:19:41 PM 42.6550 -89.4372 86° East 487 560 25,400 -2,281 Descending Chicago Center
Sat 10:20:41 PM 42.6628 -89.2589 87° East 478 550 23,100 -2,281 Descending Chicago Center
Sat 10:21:42 PM 42.6717 -89.0842 86° East 465 535 20,800 -2,231 Descending Chicago Center
Sat 10:22:42 PM 42.6789 -88.9147 87° East 456 525 18,600 -2,281 Descending Chicago Center
Sat 10:23:43 PM 42.6864 -88.7467 86° East 447 514 16,200 -2,361 Descending Chicago Center
Sat 10:24:44 PM 42.6928 -88.5814 87° East 436 502 13,800 -2,331 Descending Chicago Center
Sat 10:25:44 PM 42.7003 -88.4186 86° East 435 501 11,500 -1,884 Descending Chicago Center
Sat 10:26:45 PM 42.7067 -88.2597 87° East 425 489 10,000 -1,131 Descending Chicago Center
Sat 10:27:46 PM 42.7478 -88.1428 64° Northeast 349 402 9,200 -1,140 Descending Chicago Center
Sat 10:28:46 PM 42.7847 -88.0342 65° Northeast 323 372 7,700 -1,934 Descending Chicago Center
Sat 10:29:47 PM 42.8283 -87.9253 61° Northeast 286 329 5,300 -2,016 Descending Chicago Center
Sat 10:30:48 PM 42.8600 -87.8458 61° Northeast 250 288 3,600 -1,388 Descending Chicago Center
Sat 10:31:48 PM 42.8933 -87.7994 46° Northeast 202 232 2,500 -893 Descending Chicago Center
Sat 10:32:49 PM 42.9353 -87.7994 360° North 169 194 1,800 -545 Descending Chicago Center
Sat 10:33:49 PM 42.9561 -87.8417 304° West 152 175 1,400 -298 Descending Chicago Center
Sat 10:34:50 PM 42.9558 -87.8928 270° West 150 173 1,200 -197 Descending Chicago Center
Sat 10:36:00 PM 42.9469 -87.8971 180° South  Level Estimated

Login

Don't have an account? Register now (free) for customized features, flight alerts, and more!